createdAt,value
2023-02-21T00:01:21.078Z,99808.46
2023-02-21T00:03:31.920Z,99811.34
2023-02-21T00:05:42.063Z,99816.35
2023-02-21T00:07:52.735Z,99813.23
2023-02-21T00:10:03.217Z,99813.46
2023-02-21T00:12:13.738Z,99813.10
2023-02-21T00:14:23.581Z,99807.70
2023-02-21T00:16:35.229Z,99811.77
2023-02-21T00:18:45.600Z,99807.89
2023-02-21T00:20:55.631Z,99806.27
2023-02-21T00:23:05.753Z,99810.55
2023-02-21T00:25:15.274Z,99806.39
2023-02-21T00:27:25.068Z,99806.38
2023-02-21T00:29:35.530Z,99809.55
2023-02-21T00:31:45.576Z,99808.58
2023-02-21T00:33:56.366Z,99806.59
2023-02-21T00:36:06.478Z,99806.93
2023-02-21T00:38:16.837Z,99810.17
2023-02-21T00:40:30.814Z,99808.67
2023-02-21T00:42:41.276Z,99806.21
2023-02-21T00:44:51.151Z,99804.30
2023-02-21T00:47:00.999Z,99808.17
2023-02-21T00:49:11.020Z,99805.55
2023-02-21T00:51:21.047Z,99813.41
2023-02-21T00:53:30.444Z,99810.91
2023-02-21T00:55:40.878Z,99815.80
2023-02-21T00:57:51.443Z,99811.79
2023-02-21T01:00:01.334Z,99819.17
2023-02-21T01:02:11.528Z,99813.59
2023-02-21T01:04:21.798Z,99816.93
2023-02-21T01:06:31.625Z,99812.27
2023-02-21T01:08:41.716Z,99800.97
2023-02-21T01:10:51.860Z,99802.39
2023-02-21T01:13:02.008Z,99798.63
2023-02-21T01:15:12.078Z,99799.00
2023-02-21T01:17:22.216Z,99798.84
2023-02-21T01:19:31.965Z,99791.36
2023-02-21T01:21:41.963Z,99792.23
2023-02-21T01:23:52.616Z,99791.53
2023-02-21T01:26:02.196Z,99790.54
2023-02-21T01:28:13.121Z,99785.00
2023-02-21T01:30:23.763Z,99788.00
2023-02-21T01:32:33.525Z,99789.33
2023-02-21T01:34:43.485Z,99786.55
2023-02-21T01:36:53.474Z,99791.09
2023-02-21T01:39:03.482Z,99791.13
2023-02-21T01:41:13.763Z,99786.84
2023-02-21T01:43:35.250Z,99786.09
2023-02-21T01:45:51.424Z,99789.38
2023-02-21T01:48:01.088Z,99792.67
2023-02-21T01:50:11.219Z,99788.52
2023-02-21T01:52:22.321Z,99794.21
2023-02-21T01:54:32.923Z,99791.54
2023-02-21T01:56:42.819Z,99798.60
2023-02-21T01:58:52.710Z,99799.92
2023-02-21T02:01:03.720Z,99800.94
2023-02-21T02:03:15.422Z,99796.42
2023-02-21T02:05:27.456Z,99796.51
2023-02-21T02:07:38.358Z,99792.39
2023-02-21T02:09:48.190Z,99792.27
2023-02-21T02:12:25.779Z,99792.39
2023-02-21T02:15:02.059Z,99784.30
2023-02-21T02:17:16.523Z,99784.05
2023-02-21T02:19:38.804Z,99778.17
2023-02-21T02:21:42.602Z,99770.80
2023-02-21T02:23:57.064Z,99778.13
2023-02-21T02:26:03.599Z,99771.92
2023-02-21T02:28:09.911Z,99770.67
2023-02-21T02:30:28.383Z,99770.72
2023-02-21T02:32:22.697Z,99765.67
2023-02-21T02:34:27.988Z,99767.01
2023-02-21T02:36:24.392Z,99770.68
2023-02-21T02:38:38.703Z,99775.84
2023-02-21T02:40:43.992Z,99770.44
2023-02-21T02:42:38.886Z,99774.55
2023-02-21T02:44:37.829Z,99761.52
2023-02-21T02:46:32.203Z,99765.52
2023-02-21T02:48:28.734Z,99768.51
2023-02-21T02:50:20.712Z,99767.22
2023-02-21T02:52:12.081Z,99765.67
2023-02-21T02:54:03.459Z,99765.55
2023-02-21T02:56:00.778Z,99765.32
2023-02-21T02:57:52.903Z,99769.48
2023-02-21T02:59:46.188Z,99767.52
2023-02-21T03:01:50.036Z,99763.69
2023-02-21T03:03:59.144Z,99768.11
2023-02-21T03:06:13.858Z,99769.35
2023-02-21T03:08:25.555Z,99766.60
2023-02-21T03:10:35.702Z,99765.23
2023-02-21T03:12:46.572Z,99762.39
2023-02-21T03:14:43.773Z,99759.02
2023-02-21T03:16:39.632Z,99753.40
2023-02-21T03:18:35.440Z,99753.31
2023-02-21T03:20:27.746Z,99754.05
2023-02-21T03:22:22.938Z,99754.39
2023-02-21T03:24:16.661Z,99757.11
2023-02-21T03:26:10.746Z,99756.24
2023-02-21T03:28:02.311Z,99759.20
2023-02-21T03:29:56.167Z,99760.90
2023-02-21T03:31:55.769Z,99758.85
2023-02-21T03:33:47.272Z,99752.73
2023-02-21T03:35:39.129Z,99751.98
2023-02-21T03:37:31.626Z,99754.64
2023-02-21T03:39:22.900Z,99752.39
2023-02-21T03:41:15.923Z,99756.27
2023-02-21T03:43:07.553Z,99760.35
2023-02-21T03:44:59.304Z,99746.94
2023-02-21T03:46:51.041Z,99755.56
2023-02-21T03:48:42.430Z,99756.20
2023-02-21T03:50:33.907Z,99758.52
2023-02-21T03:52:25.595Z,99758.84
2023-02-21T03:54:17.217Z,99755.42
2023-02-21T03:56:09.006Z,99756.39
2023-02-21T03:58:00.426Z,99760.76
2023-02-21T03:59:51.671Z,99760.02
2023-02-21T04:01:43.145Z,99757.10
2023-02-21T04:03:34.866Z,99753.34
2023-02-21T04:05:26.315Z,99753.77
2023-02-21T04:07:19.334Z,99760.61
2023-02-21T04:09:11.151Z,99758.36
2023-02-21T04:11:02.905Z,99760.56
2023-02-21T04:12:54.467Z,99758.35
2023-02-21T04:14:45.950Z,99756.39
2023-02-21T04:16:37.943Z,99761.25
2023-02-21T04:18:29.206Z,99752.48
2023-02-21T04:20:20.874Z,99759.67
2023-02-21T04:22:12.168Z,99759.16
2023-02-21T04:24:03.781Z,99761.70
2023-02-21T04:25:55.157Z,99759.92
2023-02-21T04:27:46.807Z,99762.20
2023-02-21T04:29:38.021Z,99763.30
2023-02-21T04:31:29.318Z,99759.73
2023-02-21T04:33:20.987Z,99766.77
2023-02-21T04:35:12.594Z,99762.80
2023-02-21T04:37:03.961Z,99774.49
2023-02-21T04:38:55.214Z,99774.40
2023-02-21T04:40:46.965Z,99772.67
2023-02-21T04:42:38.514Z,99770.26
2023-02-21T04:44:30.448Z,99767.38
2023-02-21T04:46:21.682Z,99770.63
2023-02-21T04:48:13.460Z,99769.27
2023-02-21T04:50:05.855Z,99769.29
2023-02-21T04:51:57.059Z,99768.63
2023-02-21T04:53:49.694Z,99762.46
2023-02-21T04:55:41.072Z,99759.83
2023-02-21T04:57:33.049Z,99763.71
2023-02-21T04:59:24.824Z,99764.84
2023-02-21T05:01:19.152Z,99769.14
2023-02-21T05:03:10.667Z,99766.64
2023-02-21T05:05:02.219Z,99762.47
2023-02-21T05:06:53.795Z,99768.42
2023-02-21T05:08:45.389Z,99768.73
2023-02-21T05:10:45.177Z,99765.23
2023-02-21T05:12:39.733Z,99765.35
2023-02-21T05:14:31.247Z,99763.60
2023-02-21T05:16:22.914Z,99763.77
2023-02-21T05:18:14.637Z,99770.02
2023-02-21T05:20:11.834Z,99769.80
2023-02-21T05:22:07.197Z,99768.55
2023-02-21T05:23:58.713Z,99768.30
2023-02-21T05:25:50.317Z,99761.84
2023-02-21T05:27:41.947Z,99761.49
2023-02-21T05:29:33.745Z,99763.94
2023-02-21T05:31:25.623Z,99762.10
2023-02-21T05:33:17.443Z,99762.44
2023-02-21T05:35:10.493Z,99758.98
2023-02-21T05:37:01.652Z,99757.89
2023-02-21T05:38:55.551Z,99756.48
2023-02-21T05:40:47.079Z,99760.95
2023-02-21T05:42:38.425Z,99762.65
2023-02-21T05:44:29.602Z,99763.02
2023-02-21T05:46:26.891Z,99764.03
2023-02-21T05:48:18.734Z,99761.90
2023-02-21T05:50:10.390Z,99765.85
2023-02-21T05:52:02.173Z,99768.70
2023-02-21T05:53:54.082Z,99769.70
2023-02-21T05:55:45.422Z,99772.65
2023-02-21T05:57:39.923Z,99767.24
2023-02-21T05:59:31.558Z,99770.02
2023-02-21T06:01:23.151Z,99770.28
2023-02-21T06:03:14.897Z,99775.75
2023-02-21T06:05:06.950Z,99782.02
2023-02-21T06:06:58.539Z,99780.38
2023-02-21T06:11:04.716Z,99788.50
2023-02-21T06:12:56.192Z,99792.52
2023-02-21T06:14:47.712Z,99796.64
2023-02-21T06:16:39.091Z,99795.98
2023-02-21T06:18:30.292Z,99797.55
2023-02-21T06:20:21.756Z,99799.18
2023-02-21T06:22:13.018Z,99802.84
2023-02-21T06:24:04.945Z,99808.17
2023-02-21T06:25:56.400Z,99808.93
2023-02-21T06:27:48.180Z,99806.89
2023-02-21T06:29:39.893Z,99810.92
2023-02-21T06:31:31.628Z,99814.53
2023-02-21T06:33:23.921Z,99821.36
2023-02-21T06:35:15.523Z,99819.32
2023-02-21T06:37:07.821Z,99827.57
2023-02-21T06:38:59.579Z,99823.52
2023-02-21T06:40:51.637Z,99830.00
2023-02-21T06:42:43.424Z,99826.00
2023-02-21T06:44:34.906Z,99825.54
2023-02-21T06:46:29.764Z,99832.16
2023-02-21T06:48:21.527Z,99830.43
2023-02-21T06:50:13.135Z,99831.77
2023-02-21T06:52:05.776Z,99834.85
2023-02-21T06:53:58.621Z,99834.52
2023-02-21T06:55:50.420Z,99837.58
2023-02-21T06:57:41.882Z,99841.23
2023-02-21T06:59:33.558Z,99843.84
2023-02-21T07:01:28.386Z,99850.05
2023-02-21T07:03:19.851Z,99849.76
2023-02-21T07:05:12.194Z,99850.23
2023-02-21T07:07:03.796Z,99851.20
2023-02-21T07:08:55.392Z,99848.27
2023-02-21T07:10:47.279Z,99849.90
2023-02-21T07:12:39.537Z,99851.86
2023-02-21T07:14:31.159Z,99850.60
2023-02-21T07:16:22.941Z,99852.42
2023-02-21T07:18:14.407Z,99849.02
2023-02-21T07:20:06.767Z,99850.77
2023-02-21T07:21:58.483Z,99857.69
2023-02-21T07:23:50.439Z,99854.05
2023-02-21T07:25:41.543Z,99860.66
2023-02-21T07:27:33.235Z,99857.77
2023-02-21T07:29:24.995Z,99861.54
2023-02-21T07:31:19.332Z,99862.43
2023-02-21T07:33:10.848Z,99866.20
2023-02-21T07:35:02.361Z,99873.79
2023-02-21T07:36:53.860Z,99873.25
2023-02-21T07:38:45.180Z,99878.20
2023-02-21T07:40:36.725Z,99876.39
2023-02-21T07:42:28.437Z,99880.58
2023-02-21T07:44:19.785Z,99880.61
2023-02-21T07:46:13.040Z,99886.76
2023-02-21T07:48:04.802Z,99886.33
2023-02-21T07:49:56.431Z,99887.79
2023-02-21T07:51:47.635Z,99888.95
2023-02-21T07:53:38.828Z,99894.21
2023-02-21T07:55:30.780Z,99896.84
2023-02-21T07:57:22.196Z,99893.28
2023-02-21T07:59:13.933Z,99890.29
2023-02-21T08:01:06.842Z,99890.45
2023-02-21T08:02:58.723Z,99891.63
2023-02-21T08:04:53.140Z,99901.55
2023-02-21T08:06:44.755Z,99906.27
2023-02-21T08:08:36.267Z,99901.42
2023-02-21T08:10:29.580Z,99899.70
2023-02-21T08:12:21.022Z,99895.80
2023-02-21T08:14:12.666Z,99902.98
2023-02-21T08:16:04.088Z,99906.14
2023-02-21T08:17:55.906Z,99912.09
2023-02-21T08:19:47.767Z,99908.39
2023-02-21T08:21:38.987Z,99911.14
2023-02-21T08:23:30.186Z,99910.48
2023-02-21T08:25:21.377Z,99912.97
2023-02-21T08:27:12.777Z,99917.55
2023-02-21T08:29:04.421Z,99913.39
2023-02-21T08:30:56.023Z,99912.89
2023-02-21T08:32:48.324Z,99918.06
2023-02-21T08:34:39.850Z,99921.43
2023-02-21T08:36:35.485Z,99920.73
2023-02-21T08:38:26.973Z,99918.39
2023-02-21T08:40:21.065Z,99920.45
2023-02-21T08:42:13.734Z,99919.64
2023-02-21T08:44:06.824Z,99923.10
2023-02-21T08:45:58.726Z,99921.44
2023-02-21T08:47:51.631Z,99923.36
2023-02-21T08:49:47.674Z,99919.09
2023-02-21T08:51:40.125Z,99923.69
2023-02-21T08:53:31.526Z,99928.06
2023-02-21T08:55:24.773Z,99924.02
2023-02-21T08:57:16.598Z,99922.17
2023-02-21T08:59:09.563Z,99925.13
2023-02-21T09:01:01.030Z,99931.85
2023-02-21T09:02:52.883Z,99928.59
2023-02-21T09:04:45.172Z,99924.67
2023-02-21T09:06:36.816Z,99921.75
2023-02-21T09:08:31.128Z,99918.63
2023-02-21T09:10:22.589Z,99927.80
2023-02-21T09:12:14.183Z,99926.12
2023-02-21T09:14:06.421Z,99930.44
2023-02-21T09:15:58.224Z,99923.42
2023-02-21T09:17:50.806Z,99924.94
2023-02-21T09:19:42.386Z,99927.19
2023-02-21T09:21:34.552Z,99930.84
2023-02-21T09:23:28.256Z,99930.75
2023-02-21T09:25:24.620Z,99927.53
2023-02-21T09:27:17.865Z,99930.92
2023-02-21T09:29:12.266Z,99933.56
2023-02-21T09:31:03.742Z,99926.86
2023-02-21T09:32:56.936Z,99937.42
2023-02-21T09:34:48.377Z,99935.59
2023-02-21T09:36:40.014Z,99930.89
2023-02-21T09:38:31.299Z,99939.50
2023-02-21T09:40:42.774Z,99936.60
2023-02-21T09:42:36.418Z,99936.89
2023-02-21T09:44:28.879Z,99939.58
2023-02-21T09:46:35.473Z,99935.23
2023-02-21T09:48:27.554Z,99939.20
2023-02-21T09:50:21.356Z,99944.32
2023-02-21T09:52:23.091Z,99944.18
2023-02-21T09:54:39.418Z,99935.96
2023-02-21T09:56:39.494Z,99937.52
2023-02-21T09:58:31.146Z,99944.83
2023-02-21T10:00:33.668Z,99949.75
2023-02-21T10:02:43.686Z,99944.33
2023-02-21T10:05:03.329Z,99948.73
2023-02-21T10:07:03.274Z,99951.95
2023-02-21T10:09:01.155Z,99946.42
2023-02-21T10:10:55.827Z,99955.34
2023-02-21T10:12:59.079Z,99961.39
2023-02-21T10:15:09.231Z,99962.65
2023-02-21T10:17:11.672Z,99957.30
2023-02-21T10:19:16.897Z,99968.27
2023-02-21T10:21:30.917Z,99971.48
2023-02-21T10:23:24.801Z,99968.82
2023-02-21T10:25:36.962Z,99977.46
2023-02-21T10:27:31.376Z,99980.01
2023-02-21T10:29:50.942Z,99983.33
2023-02-21T10:31:43.228Z,99979.20
2023-02-21T10:33:36.628Z,99987.48
2023-02-21T10:35:28.024Z,99983.20
2023-02-21T10:37:41.626Z,99987.60
2023-02-21T10:39:49.161Z,99987.92
2023-02-21T10:41:41.753Z,99988.76
2023-02-21T10:43:44.561Z,99992.42
2023-02-21T10:45:58.341Z,99994.80
2023-02-21T10:47:55.827Z,99989.27
2023-02-21T10:49:58.271Z,100001.55
2023-02-21T10:52:08.752Z,100007.03
2023-02-21T10:54:22.222Z,99998.65
2023-02-21T10:56:18.661Z,100002.23
2023-02-21T10:58:18.249Z,100006.22
2023-02-21T11:00:19.538Z,99997.49
2023-02-21T11:02:31.454Z,100003.55
2023-02-21T11:04:38.751Z,99998.35
2023-02-21T11:06:39.714Z,99998.23
2023-02-21T11:08:35.528Z,100003.08
2023-02-21T11:10:28.918Z,100006.06
2023-02-21T11:12:25.886Z,100011.25
2023-02-21T11:14:17.475Z,100017.07
2023-02-21T11:16:20.130Z,100008.05
2023-02-21T11:18:19.788Z,100010.10
2023-02-21T11:20:14.478Z,100010.83
2023-02-21T11:22:06.466Z,99997.48
2023-02-21T11:24:03.988Z,99998.83
2023-02-21T11:26:07.796Z,99994.46
2023-02-21T11:28:18.247Z,99992.10
2023-02-21T11:30:19.612Z,99994.92
2023-02-21T11:32:40.210Z,99989.10
2023-02-21T11:34:32.235Z,99992.38
2023-02-21T11:36:29.538Z,99988.85
2023-02-21T11:38:37.851Z,99999.16
2023-02-21T11:40:44.363Z,100001.86
2023-02-21T11:42:35.960Z,100000.86
2023-02-21T11:44:36.232Z,100001.73
2023-02-21T11:46:46.797Z,99999.02
2023-02-21T11:48:49.408Z,99994.38
2023-02-21T11:50:49.658Z,99996.39
2023-02-21T11:52:42.635Z,99996.38
2023-02-21T11:54:34.317Z,100008.34
2023-02-21T11:57:06.760Z,100013.83
2023-02-21T11:59:28.840Z,100015.25
2023-02-21T12:02:14.103Z,100013.50
2023-02-21T12:04:31.012Z,100017.00
2023-02-21T12:06:35.829Z,100018.52
2023-02-21T12:08:48.023Z,100024.69
2023-02-21T12:10:57.973Z,100020.52
2023-02-21T12:13:04.648Z,100023.70
2023-02-21T12:15:02.972Z,100011.91
2023-02-21T12:17:14.949Z,100014.62
2023-02-21T12:19:28.234Z,100009.05
2023-02-21T12:21:37.776Z,100001.66
2023-02-21T12:23:34.606Z,100001.10
2023-02-21T12:25:44.293Z,100006.22
2023-02-21T12:27:41.509Z,100006.71
2023-02-21T12:29:52.664Z,100007.23
2023-02-21T12:32:02.663Z,100001.83
2023-02-21T12:34:05.940Z,100014.48
2023-02-21T12:36:12.630Z,100011.18
2023-02-21T12:38:23.049Z,100009.65
2023-02-21T12:40:20.610Z,100010.90
2023-02-21T12:42:33.905Z,100007.80
2023-02-21T12:44:55.757Z,100007.77
2023-02-21T12:46:46.735Z,100012.55
2023-02-21T12:48:43.753Z,100006.91
2023-02-21T12:50:41.568Z,100011.44
2023-02-21T12:52:37.714Z,100008.84
2023-02-21T12:54:53.057Z,100005.48
2023-02-21T12:56:58.472Z,100007.77
2023-02-21T12:58:57.900Z,100002.55
2023-02-21T13:00:54.949Z,100004.31
2023-02-21T13:03:05.101Z,100000.65
2023-02-21T13:05:04.754Z,100001.59
2023-02-21T13:07:01.636Z,99999.80
2023-02-21T13:08:55.681Z,100003.18
2023-02-21T13:10:53.545Z,100000.30
2023-02-21T13:13:19.493Z,99997.17
2023-02-21T13:15:24.021Z,99995.23
2023-02-21T13:17:17.351Z,99992.02
2023-02-21T13:19:11.250Z,99995.77
2023-02-21T13:21:30.978Z,99997.98
2023-02-21T13:24:04.537Z,99992.10
2023-02-21T13:26:30.424Z,100003.47
2023-02-21T13:28:27.929Z,100002.05
2023-02-21T13:30:31.411Z,99995.18
2023-02-21T13:32:22.923Z,99995.36
2023-02-21T13:34:19.366Z,100000.34
2023-02-21T13:36:20.013Z,99998.14
2023-02-21T13:38:12.139Z,100007.98
2023-02-21T13:40:26.348Z,100006.55
2023-02-21T13:42:23.312Z,100000.09
2023-02-21T13:44:24.678Z,100001.05
2023-02-21T13:46:26.751Z,100000.45
2023-02-21T13:48:29.108Z,100000.70
2023-02-21T13:50:39.006Z,100001.05
2023-02-21T13:52:33.545Z,99999.20
2023-02-21T13:54:25.358Z,100008.70
2023-02-21T13:56:17.836Z,100002.83
2023-02-21T13:58:09.363Z,100002.77
2023-02-21T14:00:26.898Z,100002.35
2023-02-21T14:02:36.312Z,100008.98
2023-02-21T14:04:50.444Z,100007.11
2023-02-21T14:06:55.937Z,100010.27
2023-02-21T14:08:49.279Z,100011.42
2023-02-21T14:10:48.197Z,100000.30
2023-02-21T14:12:44.063Z,100011.89
2023-02-21T14:14:39.620Z,100007.46
2023-02-21T14:16:33.955Z,100008.09
2023-02-21T14:18:29.239Z,100005.71
2023-02-21T14:20:22.343Z,100008.27
2023-02-21T14:22:30.876Z,100010.02
2023-02-21T14:24:24.760Z,100006.24
2023-02-21T14:26:37.089Z,100010.90
2023-02-21T14:28:59.123Z,100004.25
2023-02-21T14:31:02.127Z,100008.49
2023-02-21T14:32:55.440Z,100008.70
2023-02-21T14:34:50.042Z,100008.91
2023-02-21T14:36:41.763Z,100020.39
2023-02-21T14:38:37.942Z,100015.89
2023-02-21T14:40:32.714Z,100024.30
2023-02-21T14:42:44.137Z,100014.41
2023-02-21T14:44:58.066Z,100021.67
2023-02-21T14:47:07.429Z,100024.27
2023-02-21T14:49:02.061Z,100029.80
2023-02-21T14:51:24.962Z,100021.42
2023-02-21T14:53:37.637Z,100028.85
2023-02-21T14:55:56.834Z,100035.10
2023-02-21T14:58:13.552Z,100030.90
2023-02-21T15:00:12.230Z,100031.94
2023-02-21T15:02:36.356Z,100036.59
2023-02-21T15:04:28.070Z,100031.48
2023-02-21T15:06:22.743Z,100039.48
2023-02-21T15:08:24.850Z,100035.04
2023-02-21T15:10:23.481Z,100045.21
2023-02-21T15:12:17.723Z,100042.38
2023-02-21T15:14:27.137Z,100048.35
2023-02-21T15:16:18.813Z,100041.04
2023-02-21T15:18:32.222Z,100043.48
2023-02-21T15:20:23.980Z,100043.02
2023-02-21T15:22:16.910Z,100047.46
2023-02-21T15:24:16.383Z,100051.73
2023-02-21T15:26:24.142Z,100051.50
2023-02-21T15:28:22.530Z,100052.80
2023-02-21T15:30:22.557Z,100055.23
2023-02-21T15:32:14.803Z,100059.30
2023-02-21T15:34:06.703Z,100060.66
2023-02-21T15:36:01.607Z,100063.90
2023-02-21T15:37:53.728Z,100062.27
2023-02-21T15:39:55.590Z,100064.64
2023-02-21T15:41:50.310Z,100068.45
2023-02-21T15:43:50.040Z,100070.51
2023-02-21T15:45:45.421Z,100066.55
2023-02-21T15:47:37.164Z,100067.45
2023-02-21T15:49:41.190Z,100065.89
2023-02-21T15:51:33.572Z,100063.87
2023-02-21T15:53:25.030Z,100070.25
2023-02-21T15:55:19.657Z,100072.37
2023-02-21T15:57:13.751Z,100073.10
2023-02-21T15:59:07.841Z,100076.86
2023-02-21T16:01:07.375Z,100086.08
2023-02-21T16:03:26.738Z,100088.21
2023-02-21T16:05:30.802Z,100089.35
2023-02-21T16:07:22.149Z,100083.19
2023-02-21T16:09:36.998Z,100090.67
2023-02-21T16:11:41.062Z,100093.61
2023-02-21T16:13:38.266Z,100094.86
2023-02-21T16:15:33.145Z,100100.46
2023-02-21T16:17:31.386Z,100105.32
2023-02-21T16:19:23.562Z,100107.08
2023-02-21T16:21:23.891Z,100110.23
2023-02-21T16:23:32.486Z,100111.57
2023-02-21T16:25:25.335Z,100119.41
2023-02-21T16:27:18.579Z,100112.61
2023-02-21T16:29:09.812Z,100119.91
2023-02-21T16:31:03.518Z,100121.64
2023-02-21T16:33:00.469Z,100125.23
2023-02-21T16:34:54.887Z,100127.19
2023-02-21T16:36:46.537Z,100130.09
2023-02-21T16:38:37.769Z,100136.21
2023-02-21T16:40:31.992Z,100137.95
2023-02-21T16:42:23.409Z,100141.98
2023-02-21T16:44:14.615Z,100144.18
2023-02-21T16:46:05.990Z,100146.97
2023-02-21T16:48:01.447Z,100149.04
2023-02-21T16:49:53.105Z,100153.77
2023-02-21T16:51:44.777Z,100152.55
2023-02-21T16:53:36.412Z,100156.48
2023-02-21T16:55:28.337Z,100161.23
2023-02-21T16:57:19.993Z,100163.68
2023-02-21T16:59:14.716Z,100164.54
2023-02-21T17:01:15.697Z,100169.70
2023-02-21T17:03:07.503Z,100177.67
2023-02-21T17:04:59.001Z,100181.29
2023-02-21T17:07:13.514Z,100182.94
2023-02-21T17:09:04.759Z,100186.23
2023-02-21T17:10:57.191Z,100193.20
2023-02-21T17:12:49.266Z,100194.91
2023-02-21T17:14:41.143Z,100202.91
2023-02-21T17:16:32.717Z,100206.02
2023-02-21T17:18:24.403Z,100206.03
2023-02-21T17:20:20.500Z,100208.91
2023-02-21T17:22:12.227Z,100212.24
2023-02-21T17:24:04.245Z,100219.44
2023-02-21T17:25:57.653Z,100220.76
2023-02-21T17:27:49.476Z,100219.98
2023-02-21T17:29:40.783Z,100226.34
2023-02-21T17:31:32.919Z,100229.45
2023-02-21T17:33:24.554Z,100232.59
2023-02-21T17:35:17.237Z,100232.35
2023-02-21T17:37:09.742Z,100229.54
2023-02-21T17:39:01.167Z,100231.46
2023-02-21T17:40:53.641Z,100231.20
2023-02-21T17:42:45.521Z,100232.48
2023-02-21T17:44:37.830Z,100240.40
2023-02-21T17:46:29.499Z,100242.98
2023-02-21T17:48:22.506Z,100242.31
2023-02-21T17:50:13.966Z,100243.56
2023-02-21T17:52:06.081Z,100245.13
2023-02-21T17:53:57.850Z,100245.06
2023-02-21T17:55:49.394Z,100245.68
2023-02-21T17:57:40.763Z,100248.80
2023-02-21T17:59:36.265Z,100252.12
2023-02-21T18:01:29.466Z,100249.23
2023-02-21T18:03:22.425Z,100252.23
2023-02-21T18:05:14.312Z,100254.21
2023-02-21T18:07:05.912Z,100257.31
2023-02-21T18:08:57.801Z,100256.58
2023-02-21T18:10:49.692Z,100259.90
2023-02-21T18:12:41.124Z,100261.14
2023-02-21T18:14:32.912Z,100258.52
2023-02-21T18:16:24.840Z,100255.00
2023-02-21T18:18:16.575Z,100266.54
2023-02-21T18:20:09.760Z,100265.90
2023-02-21T18:22:06.264Z,100265.36
2023-02-21T18:23:57.876Z,100267.39
2023-02-21T18:25:49.507Z,100269.34
2023-02-21T18:27:41.310Z,100270.20
2023-02-21T18:29:32.733Z,100270.27
2023-02-21T18:31:24.001Z,100276.25
2023-02-21T18:33:15.557Z,100272.45
2023-02-21T18:37:14.656Z,100275.70
2023-02-21T18:39:07.333Z,100275.80
2023-02-21T18:41:01.797Z,100274.45
2023-02-21T18:42:53.468Z,100277.51
2023-02-21T18:44:44.822Z,100276.08
2023-02-21T18:46:38.753Z,100273.57
2023-02-21T18:48:30.457Z,100277.77
2023-02-21T18:50:22.271Z,100275.81
2023-02-21T18:52:15.031Z,100276.20
2023-02-21T18:54:06.548Z,100278.05
2023-02-21T18:55:57.919Z,100281.80
2023-02-21T18:57:50.219Z,100285.02
2023-02-21T18:59:41.637Z,100284.93
2023-02-21T19:01:33.184Z,100287.48
2023-02-21T19:03:24.664Z,100285.76
2023-02-21T19:05:20.979Z,100294.00
2023-02-21T19:16:32.212Z,100304.11
2023-02-21T19:18:24.294Z,100304.29
2023-02-21T19:20:20.106Z,100307.85
2023-02-21T19:22:11.771Z,100304.90
2023-02-21T19:24:04.346Z,100304.10
2023-02-21T19:25:56.059Z,100308.40
2023-02-21T19:27:47.773Z,100310.42
2023-02-21T19:29:39.422Z,100309.76
2023-02-21T19:31:30.863Z,100314.74
2023-02-21T19:33:24.817Z,100312.41
2023-02-21T19:35:16.668Z,100318.10
2023-02-21T19:37:09.656Z,100321.56
2023-02-21T19:39:01.072Z,100322.31
2023-02-21T19:40:52.739Z,100320.83
2023-02-21T19:42:44.584Z,100320.33
2023-02-21T19:44:36.240Z,100321.02
2023-02-21T19:46:28.708Z,100321.98
2023-02-21T19:48:21.975Z,100322.96
2023-02-21T19:50:13.939Z,100326.14
2023-02-21T19:52:05.973Z,100323.17
2023-02-21T19:53:59.258Z,100325.82
2023-02-21T19:55:51.121Z,100327.50
2023-02-21T19:57:42.991Z,100331.88
2023-02-21T19:59:34.865Z,100330.09
2023-02-21T20:01:27.217Z,100334.42
2023-02-21T20:03:18.630Z,100340.69
2023-02-21T20:05:10.883Z,100340.64
2023-02-21T20:07:02.576Z,100345.62
2023-02-21T20:08:55.444Z,100348.27
2023-02-21T20:10:46.956Z,100343.17
2023-02-21T20:12:38.341Z,100342.38
2023-02-21T20:14:29.937Z,100345.41
2023-02-21T20:16:22.462Z,100347.27
2023-02-21T20:18:14.746Z,100349.39
2023-02-21T20:20:16.095Z,100345.85
2023-02-21T20:22:07.748Z,100342.69
2023-02-21T20:24:00.401Z,100347.99
2023-02-21T20:25:52.383Z,100349.11
2023-02-21T20:27:44.187Z,100348.14
2023-02-21T20:29:36.005Z,100352.86
2023-02-21T20:31:30.250Z,100359.47
2023-02-21T20:33:23.425Z,100355.52
2023-02-21T20:35:15.198Z,100358.17
2023-02-21T20:37:07.008Z,100361.06
2023-02-21T20:38:58.910Z,100365.73
2023-02-21T20:40:51.079Z,100367.31
2023-02-21T20:42:43.068Z,100370.45
2023-02-21T20:44:37.447Z,100368.09
2023-02-21T20:46:29.181Z,100372.08
2023-02-21T20:48:25.534Z,100372.51
2023-02-21T20:50:23.442Z,100370.91
2023-02-21T20:52:16.372Z,100370.22
2023-02-21T20:54:11.149Z,100371.52
2023-02-21T20:56:05.322Z,100372.18
2023-02-21T20:57:56.567Z,100368.28
2023-02-21T20:59:48.213Z,100367.80
2023-02-21T21:01:40.206Z,100369.02
2023-02-21T21:03:36.119Z,100371.05
2023-02-21T21:05:27.835Z,100370.40
2023-02-21T21:07:22.576Z,100368.14
2023-02-21T21:09:18.246Z,100368.34
2023-02-21T21:11:10.340Z,100369.15
2023-02-21T21:13:02.068Z,100369.71
2023-02-21T21:14:53.583Z,100370.47
2023-02-21T21:16:46.569Z,100374.12
2023-02-21T21:18:38.352Z,100373.15
2023-02-21T21:20:31.075Z,100373.94
2023-02-21T21:22:28.923Z,100371.98
2023-02-21T21:24:20.888Z,100375.34
2023-02-21T21:26:13.967Z,100374.56
2023-02-21T21:28:07.312Z,100376.77
2023-02-21T21:29:59.303Z,100382.02
2023-02-21T21:31:54.576Z,100382.22
2023-02-21T21:33:46.811Z,100379.77
2023-02-21T21:35:38.260Z,100384.59
2023-02-21T21:37:30.437Z,100388.30
2023-02-21T21:39:23.405Z,100388.46
2023-02-21T21:41:15.664Z,100394.01
2023-02-21T21:43:08.226Z,100395.66
2023-02-21T21:44:59.768Z,100397.23
2023-02-21T21:46:52.691Z,100393.14
2023-02-21T21:48:45.037Z,100396.45
2023-02-21T21:50:36.689Z,100397.27
2023-02-21T21:52:28.534Z,100399.93
2023-02-21T21:54:20.848Z,100400.00
2023-02-21T21:56:12.691Z,100398.50
2023-02-21T21:58:10.713Z,100393.16
2023-02-21T22:00:02.225Z,100400.60
2023-02-21T22:01:54.194Z,100404.92
2023-02-21T22:03:47.426Z,100398.42
2023-02-21T22:05:39.160Z,100397.95
2023-02-21T22:07:30.910Z,100398.30
2023-02-21T22:09:23.056Z,100394.77
2023-02-21T22:11:14.682Z,100396.56
2023-02-21T22:13:13.681Z,100394.92
2023-02-21T22:15:06.234Z,100395.66
2023-02-21T22:16:58.260Z,100401.05
2023-02-21T22:18:51.824Z,100397.74
2023-02-21T22:20:48.550Z,100400.23
2023-02-21T22:22:40.222Z,100399.65
2023-02-21T22:24:33.847Z,100403.98
2023-02-21T22:26:27.385Z,100408.56
2023-02-21T22:28:19.057Z,100406.05
2023-02-21T22:30:11.244Z,100411.45
2023-02-21T22:32:02.766Z,100411.45
2023-02-21T22:33:59.414Z,100413.27
2023-02-21T22:35:51.356Z,100413.25
2023-02-21T22:37:47.598Z,100413.33
2023-02-21T22:39:39.220Z,100416.98
2023-02-21T22:41:33.953Z,100415.38
2023-02-21T22:43:27.917Z,100416.43
2023-02-21T22:45:21.976Z,100415.14
2023-02-21T22:47:13.869Z,100417.77
2023-02-21T22:49:05.707Z,100417.02
2023-02-21T22:50:57.676Z,100419.90
2023-02-21T22:53:01.456Z,100418.93
2023-02-21T22:54:53.059Z,100418.22